Time;durP1;ratioP1;P1;durP2;ratioP2;P2;SDS_P1;SDS_P2;PMS_P1;PMS_P2;Temp;Humidity;BMP_temperature;BMP_pressure;BME280_temperature;BME280_humidity;BME280_pressure;Samples;Min_cycle;Max_cycle;Signal;HPM_P1;HPM_P2
2022/12/24 00:00:31;;;;;;;126.15;58.10;;;;;;;6.47;100.00;99519.11;1762546;81;21050;-66
2022/12/24 00:02:58;;;;;;;138.55;62.73;;;;;;;6.20;100.00;99519.47;1761916;81;21039;-66
2022/12/24 00:05:24;;;;;;;111.85;52.17;;;;;;;6.42;100.00;99519.71;1762102;81;21039;-66
2022/12/24 00:07:51;;;;;;;120.25;56.75;;;;;;;6.54;100.00;99517.63;1762193;80;21139;-65
2022/12/24 00:10:18;;;;;;;133.85;60.45;;;;;;;6.44;100.00;99512.67;1761969;81;21094;-67
2022/12/24 00:12:45;;;;;;;128.68;61.37;;;;;;;6.27;100.00;99512.30;1762035;80;21007;-66
2022/12/24 00:15:11;;;;;;;137.15;62.83;;;;;;;6.38;100.00;99507.62;1762310;80;21019;-66
2022/12/24 00:17:38;;;;;;;130.40;55.83;;;;;;;6.41;100.00;99504.90;1762210;81;22181;-65
2022/12/24 00:20:07;;;;;;;137.85;61.77;;;;;;;6.09;100.00;99510.62;1762055;80;21875;-65
2022/12/24 00:22:34;;;;;;;141.22;62.35;;;;;;;6.48;100.00;99506.88;1762087;81;21078;-65
2022/12/24 00:25:00;;;;;;;121.70;57.15;;;;;;;6.48;100.00;99506.88;1762335;80;21015;-66
2022/12/24 00:27:27;;;;;;;136.97;62.80;;;;;;;6.37;100.00;99503.27;1776327;79;21006;-65
2022/12/24 00:29:53;;;;;;;146.22;65.45;;;;;;;6.08;100.00;99506.76;1795505;79;21041;-66
2022/12/24 00:32:19;;;;;;;117.85;54.08;;;;;;;6.26;100.00;99506.23;1795139;79;21556;-66
2022/12/24 00:34:46;;;;;;;133.10;62.85;;;;;;;6.19;100.00;99505.13;1795052;79;21110;-66
2022/12/24 00:37:12;;;;;;;113.72;52.58;;;;;;;6.81;100.00;99506.31;1795072;79;20994;-66
2022/12/24 00:39:39;;;;;;;128.02;58.40;;;;;;;6.81;100.00;99506.31;1795472;79;21164;-65
2022/12/24 00:42:05;;;;;;;137.47;59.73;;;;;;;6.20;100.00;99509.47;1795118;79;21088;-65
2022/12/24 00:44:32;;;;;;;120.30;56.23;;;;;;;6.29;100.00;99505.27;1795311;79;21953;-66
2022/12/24 00:46:58;;;;;;;127.00;56.88;;;;;;;6.47;100.00;99509.95;1795035;79;21020;-67
2022/12/24 00:49:25;;;;;;;118.45;53.52;;;;;;;6.41;100.00;99505.36;1795030;79;21068;-66
2022/12/24 00:51:52;;;;;;;118.85;53.15;;;;;;;6.48;100.00;99507.73;1794863;79;21021;-66
2022/12/24 00:54:18;;;;;;;124.87;56.40;;;;;;;6.38;100.00;99502.39;1795624;79;21507;-66
2022/12/24 00:56:44;;;;;;;111.47;51.08;;;;;;;6.81;100.00;99492.34;1763962;79;21212;-70
2022/12/24 00:59:12;;;;;;;129.90;58.42;;;;;;;6.90;100.00;99485.08;1795028;79;21003;-67
2022/12/24 01:01:39;;;;;;;119.20;53.40;;;;;;;6.78;100.00;99484.14;1795803;79;22087;-65
2022/12/24 01:06:50;;;;;;;124.55;57.17;;;;;;;6.84;100.00;99472.18;1795249;79;21015;-67
2022/12/24 01:09:17;;;;;;;122.42;54.90;;;;;;;6.63;100.00;99472.88;1795466;79;21141;-67
2022/12/24 01:11:45;;;;;;;124.45;54.98;;;;;;;6.79;100.00;99468.86;1795447;79;21137;-66
2022/12/24 01:14:13;;;;;;;127.90;59.50;;;;;;;6.71;100.00;99468.23;1795250;79;21074;-66
2022/12/24 01:16:39;;;;;;;120.97;54.98;;;;;;;6.63;100.00;99470.26;1795205;79;21026;-65
2022/12/24 01:19:05;;;;;;;127.70;59.00;;;;;;;6.57;100.00;99478.28;1795264;79;21074;-67
2022/12/24 01:21:32;;;;;;;127.07;59.27;;;;;;;6.66;100.00;99478.00;1795526;79;21146;-65
2022/12/24 01:23:58;;;;;;;124.02;55.78;;;;;;;6.83;100.00;99485.30;1795159;79;21002;-66
2022/12/24 01:26:25;;;;;;;127.02;55.78;;;;;;;6.89;100.00;99480.73;1795475;79;21062;-66
2022/12/24 01:28:51;;;;;;;113.80;52.33;;;;;;;6.71;100.00;99482.63;1795202;79;21037;-68
2022/12/24 01:31:18;;;;;;;118.40;55.35;;;;;;;6.43;100.00;99484.79;1795535;79;21062;-66
2022/12/24 01:33:45;;;;;;;116.12;52.25;;;;;;;6.42;100.00;99493.55;1795397;79;21116;-67
2022/12/24 01:36:13;;;;;;;110.08;48.48;;;;;;;6.45;100.00;99493.45;1764895;79;21022;-66
2022/12/24 01:38:40;;;;;;;130.18;57.10;;;;;;;6.41;100.00;99489.20;1795353;79;20996;-66
2022/12/24 01:44:30;;;;;;;116.65;51.45;;;;;;;6.67;100.00;99484.93;1795189;79;21113;-65
2022/12/24 01:47:22;;;;;;;125.10;55.73;;;;;;;6.87;100.00;99486.47;1795488;79;21755;-67
2022/12/24 01:50:00;;;;;;;113.20;52.65;;;;;;;6.91;100.00;99480.23;1794462;79;21042;-65
2022/12/24 01:52:31;;;;;;;109.60;50.15;;;;;;;7.09;100.00;99474.85;1791248;79;21013;-66
2022/12/24 01:55:08;;;;;;;128.20;57.17;;;;;;;7.09;100.00;99474.85;1789111;80;21050;-66
2022/12/24 01:57:42;;;;;;;115.47;52.15;;;;;;;6.94;100.00;99469.66;1789333;80;21041;-66
2022/12/24 02:00:11;;;;;;;105.63;47.80;;;;;;;6.96;100.00;99474.00;1787730;80;21078;-67
2022/12/24 02:02:39;;;;;;;117.90;52.40;;;;;;;7.26;100.00;99463.80;1758016;81;21098;-66
2022/12/24 02:05:28;;;;;;;111.88;52.55;;;;;;;7.42;100.00;99469.38;1758319;81;21053;-67
2022/12/24 02:07:55;;;;;;;112.80;53.45;;;;;;;7.61;100.00;99463.48;1757892;81;21174;-66
2022/12/24 02:10:22;;;;;;;115.70;53.35;;;;;;;7.50;100.00;99461.23;1758001;81;21050;-66
2022/12/24 02:12:51;;;;;;;113.03;52.30;;;;;;;7.48;100.00;99463.08;1758044;81;21046;-66
2022/12/24 02:15:18;;;;;;;127.87;59.65;;;;;;;7.22;100.00;99456.95;1758218;81;21031;-67
2022/12/24 02:18:11;;;;;;;121.25;55.35;;;;;;;7.19;100.00;99464.92;1758048;81;21071;-65
2022/12/24 02:20:58;;;;;;;114.22;53.60;;;;;;;7.44;100.00;99465.40;1758087;81;21105;-66
2022/12/24 06:01:53;;;;;;;115.33;57.47;;;;;;;5.87;100.00;99433.72;1825843;77;22348;-64
2022/12/24 06:04:19;;;;;;;116.00;57.53;;;;;;;5.79;100.00;99437.84;1798540;79;22108;-65
2022/12/24 06:06:46;;;;;;;117.33;57.17;;;;;;;5.79;100.00;99437.84;1798553;79;21054;-64
2022/12/24 06:09:13;;;;;;;134.52;63.50;;;;;;;6.04;100.00;99455.00;1798439;79;20978;-65
2022/12/24 06:11:40;;;;;;;135.82;64.67;;;;;;;6.07;100.00;99453.63;1798460;79;21043;-65
2022/12/24 06:14:07;;;;;;;127.22;60.85;;;;;;;6.35;100.00;99462.38;1798476;79;21080;-66
2022/12/24 06:16:33;;;;;;;110.95;52.70;;;;;;;6.45;100.00;99454.67;1798575;79;21024;-65
2022/12/24 06:19:00;;;;;;;118.02;58.75;;;;;;;5.90;100.00;99459.75;1750086;82;21248;-67
2022/12/24 06:21:26;;;;;;;112.65;55.38;;;;;;;5.90;100.00;99459.75;1750191;82;21489;-66
2022/12/24 06:23:53;;;;;;;126.85;60.80;;;;;;;6.07;100.00;99466.70;1750126;82;21708;-65
2022/12/24 06:26:21;;;;;;;115.05;55.80;;;;;;;6.26;100.00;99458.31;1750185;82;21046;-66
2022/12/24 06:28:48;;;;;;;107.55;50.48;;;;;;;6.26;100.00;99458.31;1750384;81;21108;-66
2022/12/24 06:31:17;;;;;;;117.30;55.43;;;;;;;6.34;100.00;99465.91;1741794;82;21823;-65
2022/12/24 06:33:44;;;;;;;120.40;54.98;;;;;;;6.47;100.00;99460.26;1741972;81;21102;-67
2022/12/24 06:36:20;;;;;;;118.08;56.25;;;;;;;6.35;100.00;99468.49;1741636;82;21017;-66
2022/12/24 06:38:47;;;;;;;106.30;51.53;;;;;;;6.66;100.00;99467.53;1741802;82;20989;-68
2022/12/24 06:41:13;;;;;;;113.17;52.95;;;;;;;6.40;100.00;99473.58;1741982;81;21563;-66
2022/12/24 06:43:45;;;;;;;119.17;55.15;;;;;;;6.28;100.00;99483.93;1742087;82;21042;-66
2022/12/24 06:46:12;;;;;;;117.95;56.60;;;;;;;6.87;100.00;99468.60;1741805;82;21076;-66
2022/12/24 06:48:40;;;;;;;115.77;54.85;;;;;;;6.34;100.00;99477.22;1741939;81;21056;-67
2022/12/24 06:51:08;;;;;;;128.40;58.33;;;;;;;6.37;100.00;99478.88;1741529;82;21028;-66
2022/12/24 06:53:35;;;;;;;108.27;53.23;;;;;;;6.53;100.00;99472.28;1720459;81;21111;-66
2022/12/24 06:56:07;;;;;;;104.05;51.37;;;;;;;6.70;100.00;99466.08;1714675;83;21202;-66
2022/12/24 06:58:34;;;;;;;128.02;61.30;;;;;;;6.65;100.00;99477.15;1714333;83;21116;-67
2022/12/24 07:01:02;;;;;;;106.70;51.10;;;;;;;7.08;100.00;99467.04;1725163;82;21107;-67
2022/12/24 07:03:29;;;;;;;99.10;48.92;;;;;;;7.08;100.00;99467.04;1735063;82;21485;-67
2022/12/24 07:05:55;;;;;;;112.37;53.50;;;;;;;7.16;100.00;99471.58;1735318;82;21135;-67
2022/12/24 07:08:21;;;;;;;111.52;52.35;;;;;;;7.42;100.00;99452.80;1735039;82;21309;-65
2022/12/24 07:10:50;;;;;;;116.80;57.55;;;;;;;7.55;100.00;99475.05;1735020;82;21130;-65
2022/12/24 07:13:17;;;;;;;110.10;51.80;;;;;;;7.74;100.00;99477.41;1735468;82;21424;-67
2022/12/24 07:15:44;;;;;;;121.07;54.30;;;;;;;7.55;100.00;99476.36;1735189;82;21087;-66
2022/12/24 07:18:11;;;;;;;123.58;55.50;;;;;;;7.60;100.00;99478.36;1735396;82;21533;-67
2022/12/24 07:20:38;;;;;;;112.05;53.38;;;;;;;7.05;100.00;99486.78;1735309;82;21878;-67
2022/12/24 07:23:05;;;;;;;104.10;50.48;;;;;;;7.23;100.00;99481.40;1735096;82;21094;-68
2022/12/24 07:25:31;;;;;;;115.50;54.18;;;;;;;7.65;100.00;99481.66;1735197;82;21099;-66
2022/12/24 07:27:58;;;;;;;102.38;49.20;;;;;;;7.77;100.00;99477.28;1715113;82;21084;-66
2022/12/24 07:30:24;;;;;;;115.30;55.35;;;;;;;7.96;100.00;99480.59;1704596;84;21092;-67
2022/12/24 07:32:51;;;;;;;97.55;48.30;;;;;;;8.10;100.00;99482.23;1704392;84;21795;-67
2022/12/24 07:35:17;;;;;;;94.50;48.87;;;;;;;8.04;100.00;99482.45;1704418;84;21080;-66
2022/12/24 07:37:45;;;;;;;104.85;51.00;;;;;;;8.03;100.00;99476.82;1704175;84;21048;-67
2022/12/24 07:40:12;;;;;;;91.67;47.23;;;;;;;7.87;100.00;99476.52;1704642;84;21651;-67
2022/12/24 07:42:38;;;;;;;106.52;53.58;;;;;;;7.89;100.00;99483.00;1704351;84;21036;-66
2022/12/24 07:45:07;;;;;;;97.57;48.80;;;;;;;8.02;100.00;99482.96;1704598;84;21760;-67
2022/12/24 07:47:34;;;;;;;98.00;47.78;;;;;;;8.15;100.00;99483.37;1704371;84;22169;-67
2022/12/24 07:50:03;;;;;;;99.07;51.40;;;;;;;7.98;100.00;99483.98;1704766;84;21037;-66
2022/12/24 07:52:29;;;;;;;90.83;46.25;;;;;;;8.31;100.00;99481.03;1704222;82;21103;-67
2022/12/24 07:54:56;;;;;;;101.47;50.48;;;;;;;8.00;100.00;99483.47;1704432;84;21009;-67
2022/12/24 07:57:23;;;;;;;99.10;49.38;;;;;;;7.96;100.00;99484.52;1704150;84;21252;-67
2022/12/24 07:59:49;;;;;;;93.72;47.33;;;;;;;7.90;100.00;99484.27;1704515;84;21554;-67
2022/12/24 08:02:16;;;;;;;100.07;50.73;;;;;;;8.08;100.00;99477.96;1704401;84;21659;-67
2022/12/24 08:04:42;;;;;;;88.03;43.42;;;;;;;7.98;100.00;99474.80;1704554;84;22462;-68
2022/12/24 08:07:09;;;;;;;88.30;47.13;;;;;;;7.75;100.00;99473.02;1704484;84;21063;-67
2022/12/24 08:09:36;;;;;;;108.85;52.85;;;;;;;7.83;100.00;99474.92;1704533;84;21119;-67
2022/12/24 08:12:03;;;;;;;102.38;50.23;;;;;;;7.85;100.00;99480.12;1704604;84;21610;-67
2022/12/24 08:14:30;;;;;;;103.12;51.80;;;;;;;7.97;100.00;99466.55;1704544;84;21048;-66
2022/12/24 08:16:56;;;;;;;107.32;51.73;;;;;;;7.88;100.00;99474.29;1704718;84;21147;-67
2022/12/24 08:19:23;;;;;;;101.50;49.00;;;;;;;7.78;100.00;99476.39;1704630;84;21076;-66
2022/12/24 08:21:50;;;;;;;101.80;51.60;;;;;;;7.87;100.00;99473.91;1704360;84;21241;-66
2022/12/24 08:24:16;;;;;;;92.50;46.83;;;;;;;7.84;100.00;99467.44;1704414;84;21063;-67
2022/12/24 08:26:42;;;;;;;101.10;49.85;;;;;;;8.14;100.00;99473.78;1704244;84;21061;-66
2022/12/24 08:29:10;;;;;;;99.97;50.00;;;;;;;8.22;100.00;99466.95;1704387;84;21128;-67
2022/12/24 08:31:37;;;;;;;101.12;49.10;;;;;;;8.35;100.00;99468.17;1704386;84;21162;-66
2022/12/24 08:34:06;;;;;;;105.22;51.05;;;;;;;8.03;100.00;99466.33;1704595;84;21667;-66
2022/12/24 08:36:33;;;;;;;85.50;43.75;;;;;;;7.77;100.00;99452.84;1704381;84;21083;-65
2022/12/24 08:39:02;;;;;;;98.25;48.68;;;;;;;7.92;100.00;99458.00;1704727;84;21112;-67
2022/12/24 08:41:30;;;;;;;101.58;49.25;;;;;;;8.01;100.00;99457.66;1704540;84;21036;-67
2022/12/24 08:43:56;;;;;;;92.78;47.93;;;;;;;7.69;100.00;99457.07;1704666;84;21128;-66
2022/12/24 08:46:24;;;;;;;104.75;51.37;;;;;;;7.98;100.00;99453.83;1704458;84;21726;-68
2022/12/24 08:48:50;;;;;;;90.70;45.60;;;;;;;8.31;100.00;99453.02;1704213;84;21124;-68
2022/12/24 08:51:18;;;;;;;85.95;42.88;;;;;;;8.06;100.00;99450.47;1704905;84;21092;-67
2022/12/24 08:53:45;;;;;;;104.97;53.05;;;;;;;8.07;100.00;99446.92;1704477;82;21068;-67
2022/12/24 08:56:12;;;;;;;90.83;46.35;;;;;;;8.67;100.00;99441.16;1704628;84;21100;-67
2022/12/24 08:58:48;;;;;;;106.22;50.43;;;;;;;8.77;100.00;99438.58;1704270;84;21288;-67
2022/12/24 09:01:19;;;;;;;110.90;52.17;;;;;;;8.51;100.00;99441.79;1703772;84;21021;-67
2022/12/24 09:03:45;;;;;;;112.40;52.48;;;;;;;8.73;100.00;99452.73;1704161;84;21166;-66
2022/12/24 09:06:12;;;;;;;109.92;52.43;;;;;;;8.67;100.00;99454.28;1704661;84;21052;-68
2022/12/24 09:08:38;;;;;;;91.28;46.53;;;;;;;8.71;100.00;99454.09;1704378;84;21599;-68
2022/12/24 09:11:14;;;;;;;107.70;51.50;;;;;;;8.55;100.00;99458.25;1704437;84;21149;-68
2022/12/24 09:13:41;;;;;;;106.43;51.63;;;;;;;8.45;100.00;99455.14;1704265;84;21035;-68
2022/12/24 09:16:07;;;;;;;94.25;45.55;;;;;;;8.65;100.00;99453.48;1704480;83;21072;-67
2022/12/24 09:18:34;;;;;;;102.90;51.70;;;;;;;8.87;100.00;99447.77;1704273;84;21664;-67
2022/12/24 09:21:05;;;;;;;105.58;52.78;;;;;;;8.81;100.00;99462.45;1704473;84;21616;-67
2022/12/24 09:23:35;;;;;;;87.70;45.45;;;;;;;8.61;100.00;99448.37;1704621;84;21197;-66
2022/12/24 09:26:09;;;;;;;107.00;52.58;;;;;;;8.49;100.00;99452.80;1704460;84;21051;-65
2022/12/24 09:28:35;;;;;;;88.65;44.30;;;;;;;8.56;100.00;99454.27;1732355;82;21063;-67
2022/12/24 09:31:03;;;;;;;101.92;51.35;;;;;;;8.39;100.00;99460.59;1735401;82;21063;-66
2022/12/24 09:33:35;;;;;;;100.33;52.13;;;;;;;8.44;100.00;99469.63;1735350;82;21575;-67
2022/12/24 09:36:01;;;;;;;75.83;40.90;;;;;;;8.68;100.00;99469.14;1735308;82;21149;-67
2022/12/24 09:38:29;;;;;;;98.15;53.02;;;;;;;8.58;100.00;99462.05;1735369;82;21024;-68
2022/12/24 09:40:56;;;;;;;100.40;48.83;;;;;;;8.63;100.00;99465.81;1735322;82;21087;-67
2022/12/24 09:43:28;;;;;;;89.72;46.63;;;;;;;8.97;100.00;99471.44;1708251;82;21063;-66
2022/12/24 09:46:23;;;;;;;99.37;53.20;;;;;;;8.99;100.00;99470.89;1735391;82;21567;-67
2022/12/24 09:48:54;;;;;;;74.45;41.23;;;;;;;9.18;100.00;99476.73;1735335;82;21154;-67
2022/12/24 09:51:37;;;;;;;81.15;42.17;;;;;;;9.23;100.00;99461.63;1735491;82;21040;-68
2022/12/24 09:54:13;;;;;;;95.38;48.55;;;;;;;8.94;100.00;99459.73;1735348;82;21046;-67
2022/12/24 09:56:43;;;;;;;96.42;48.55;;;;;;;9.39;100.00;99462.67;1735501;82;21072;-65
2022/12/24 09:59:19;;;;;;;91.55;46.37;;;;;;;9.52;100.00;99462.98;1735484;82;21044;-68
2022/12/24 10:01:45;;;;;;;91.10;47.25;;;;;;;9.15;100.00;99463.23;1735303;82;21086;-69
2022/12/24 10:04:14;;;;;;;82.47;43.87;;;;;;;8.84;100.00;99465.44;1735460;82;21208;-68
2022/12/24 10:06:56;;;;;;;95.67;49.23;;;;;;;9.10;100.00;99470.92;1735745;82;21057;-67
2022/12/24 10:09:50;;;;;;;90.12;46.18;;;;;;;9.38;100.00;99460.95;1735733;82;24902;-67
2022/12/24 10:12:35;;;;;;;84.20;43.52;;;;;;;9.10;100.00;99472.23;1735289;82;21128;-66
2022/12/24 10:15:25;;;;;;;90.22;45.92;;;;;;;8.87;100.00;99470.09;1735251;82;21767;-67
2022/12/24 10:18:25;;;;;;;99.05;51.05;;;;;;;9.31;100.00;99467.86;1735073;82;21205;-67
2022/12/24 10:21:12;;;;;;;105.65;51.50;;;;;;;9.19;100.00;99465.29;1735296;82;21067;-67
2022/12/24 10:24:13;;;;;;;90.70;45.85;;;;;;;9.15;100.00;99465.02;1735040;82;21548;-67
2022/12/24 10:26:54;;;;;;;102.53;52.33;;;;;;;9.59;100.00;99464.89;1731890;82;21543;-66
2022/12/24 10:29:25;;;;;;;117.20;57.98;;;;;;;9.28;100.00;99468.00;1704989;84;21221;-66
2022/12/24 10:31:57;;;;;;;90.87;46.18;;;;;;;8.91;100.00;99476.09;1704002;84;21052;-68
2022/12/24 10:34:25;;;;;;;107.17;52.30;;;;;;;8.60;100.00;99479.48;1704379;84;21120;-67
2022/12/24 10:36:52;;;;;;;89.32;45.50;;;;;;;8.65;100.00;99474.48;1704296;84;21064;-67
2022/12/24 10:39:21;;;;;;;79.32;42.58;;;;;;;8.87;100.00;99475.81;1704646;84;21068;-66
2022/12/24 10:41:52;;;;;;;106.45;51.13;;;;;;;8.77;100.00;99479.27;1704718;84;21662;-67
2022/12/24 10:44:21;;;;;;;97.27;50.75;;;;;;;8.80;100.00;99485.70;1704656;84;21076;-67
2022/12/24 10:46:48;;;;;;;102.02;51.92;;;;;;;8.80;100.00;99477.83;1704375;84;21076;-68
2022/12/24 10:49:18;;;;;;;100.82;51.00;;;;;;;8.67;100.00;99480.53;1704631;83;21687;-67
2022/12/24 10:51:57;;;;;;;103.45;52.30;;;;;;;8.92;100.00;99483.88;1703690;82;21182;-66
2022/12/24 10:54:25;;;;;;;115.22;57.33;;;;;;;9.00;100.00;99471.30;1704553;84;21245;-66
2022/12/24 10:56:57;;;;;;;101.30;51.58;;;;;;;8.85;100.00;99477.17;1704349;84;21061;-66
2022/12/24 10:59:40;;;;;;;96.80;48.15;;;;;;;8.71;100.00;99490.00;1704790;84;21063;-67
2022/12/24 11:02:34;;;;;;;104.32;54.35;;;;;;;8.67;100.00;99482.69;1695942;84;21073;-67
2022/12/24 11:05:09;;;;;;;115.40;55.52;;;;;;;8.74;100.00;99484.63;1684092;85;21120;-67
2022/12/24 11:07:35;;;;;;;107.92;54.05;;;;;;;8.93;100.00;99479.05;1680344;85;21138;-68
2022/12/24 11:10:05;;;;;;;111.40;56.08;;;;;;;9.22;100.00;99491.42;1684188;85;21098;-67
2022/12/24 11:12:36;;;;;;;108.03;53.33;;;;;;;9.24;100.00;99485.65;1684206;85;21185;-68
2022/12/24 11:15:20;;;;;;;111.57;55.30;;;;;;;9.15;100.00;99483.41;1684375;85;21132;-67
2022/12/24 11:18:05;;;;;;;114.17;59.03;;;;;;;9.19;100.00;99486.30;1683941;84;21474;-67
2022/12/24 11:20:33;;;;;;;104.50;53.60;;;;;;;9.17;100.00;99493.39;1683950;85;21126;-67
2022/12/24 11:23:01;;;;;;;118.37;57.67;;;;;;;8.79;100.00;99482.23;1683810;85;21112;-67
2022/12/24 11:25:32;;;;;;;124.67;61.28;;;;;;;9.12;100.00;99479.13;1684137;85;21077;-67
2022/12/24 11:28:13;;;;;;;124.85;59.77;;;;;;;9.30;100.00;99470.95;1703668;83;21084;-67
2022/12/24 11:30:40;;;;;;;122.60;59.53;;;;;;;9.36;100.00;99474.64;1713506;83;21077;-67
2022/12/24 11:33:12;;;;;;;121.92;61.50;;;;;;;9.49;100.00;99477.58;1714292;83;21105;-66
2022/12/24 11:35:42;;;;;;;115.22;57.73;;;;;;;9.61;100.00;99488.02;1713965;83;21069;-67
2022/12/24 11:38:11;;;;;;;126.18;64.15;;;;;;;9.75;100.00;99493.53;1714220;83;21117;-66
2022/12/24 11:40:44;;;;;;;117.22;61.88;;;;;;;9.80;100.00;99488.95;1713934;83;21068;-67
2022/12/24 11:43:17;;;;;;;113.10;58.75;;;;;;;9.62;100.00;99497.17;1714293;83;21072;-66
2022/12/24 11:45:49;;;;;;;130.25;64.87;;;;;;;9.71;100.00;99494.61;1713750;83;21528;-67
2022/12/24 11:48:32;;;;;;;133.05;65.17;;;;;;;9.60;100.00;99500.33;1713747;83;21049;-66
2022/12/24 11:51:05;;;;;;;125.27;64.15;;;;;;;9.72;100.00;99494.98;1714060;83;21583;-67
2022/12/24 11:53:54;;;;;;;126.02;62.85;;;;;;;9.76;100.00;99497.88;1713927;82;21029;-67
2022/12/24 11:56:43;;;;;;;126.40;64.47;;;;;;;9.81;100.00;99489.80;1713563;83;21065;-68
2022/12/24 11:59:36;;;;;;;102.30;52.80;;;;;;;9.77;100.00;99493.47;1714410;83;21743;-68
2022/12/24 12:02:25;;;;;;;118.62;58.02;;;;;;;9.70;100.00;99500.77;1719319;82;21127;-67
2022/12/24 12:05:02;;;;;;;111.15;55.50;;;;;;;9.79;100.00;99501.69;1735268;82;21048;-66
2022/12/24 12:07:36;;;;;;;102.40;54.00;;;;;;;9.68;100.00;99494.72;1735267;82;21595;-66
2022/12/24 12:10:18;;;;;;;111.17;55.65;;;;;;;9.54;100.00;99501.05;1735252;82;21082;-69
2022/12/24 12:13:13;;;;;;;104.25;51.00;;;;;;;9.48;100.00;99498.66;1733815;82;21171;-66
2022/12/24 12:15:45;;;;;;;99.50;51.30;;;;;;;9.65;100.00;99500.97;1735535;82;21060;-66
2022/12/24 12:18:15;;;;;;;105.20;53.92;;;;;;;9.40;100.00;99498.53;1735294;82;21071;-67
2022/12/24 12:20:48;;;;;;;83.82;42.83;;;;;;;9.50;100.00;99496.39;1735707;82;21060;-66
2022/12/24 12:23:32;;;;;;;103.67;54.33;;;;;;;9.78;100.00;99501.31;1735207;82;21123;-67
2022/12/24 12:26:24;;;;;;;121.82;56.68;;;;;;;9.64;100.00;99502.38;1735115;82;21174;-66
2022/12/24 12:29:13;;;;;;;91.22;48.35;;;;;;;9.56;100.00;99500.05;1704273;84;21036;-68
2022/12/24 12:31:47;;;;;;;106.70;52.60;;;;;;;9.41;100.00;99498.95;1704547;84;21109;-66
2022/12/24 12:34:27;;;;;;;115.90;57.80;;;;;;;9.45;100.00;99515.42;1704320;84;21118;-67
2022/12/24 12:37:19;;;;;;;110.72;55.55;;;;;;;9.62;100.00;99521.30;1704208;84;21113;-67
2022/12/24 12:39:46;;;;;;;102.02;50.08;;;;;;;9.43;100.00;99523.83;1704416;84;21134;-68
2022/12/24 12:42:34;;;;;;;119.67;58.73;;;;;;;9.91;100.00;99517.84;1704156;84;21045;-68
2022/12/24 12:45:19;;;;;;;109.50;56.15;;;;;;;9.85;100.00;99518.52;1704463;84;21196;-68
2022/12/24 12:48:30;;;;;;;95.87;50.55;;;;;;;9.96;100.00;99517.18;1704561;84;21056;-69
2022/12/24 12:51:05;;;;;;;121.28;62.80;;;;;;;9.72;100.00;99523.91;1704312;84;21076;-65
2022/12/24 12:53:43;;;;;;;119.25;60.78;;;;;;;9.69;100.00;99523.20;1703700;82;21788;-66
2022/12/24 12:56:29;;;;;;;126.15;65.25;;;;;;;9.96;100.00;99515.43;1704203;84;21076;-67
2022/12/24 12:59:27;;;;;;;110.97;54.95;;;;;;;9.85;100.00;99522.47;1703184;84;21112;-66
2022/12/24 13:02:34;;;;;;;113.72;55.92;;;;;;;9.68;100.00;99528.91;1703349;84;21139;-67
2022/12/24 13:05:27;;;;;;;114.72;54.65;;;;;;;9.70;100.00;99529.70;1683897;85;21084;-67
2022/12/24 13:08:34;;;;;;;108.50;54.67;;;;;;;9.31;100.00;99537.48;1623864;85;21190;-67
2022/12/24 13:11:19;;;;;;;118.33;57.27;;;;;;;9.60;100.00;99538.91;1683710;85;21572;-67
2022/12/24 13:14:09;;;;;;;117.35;60.40;;;;;;;9.65;100.00;99534.30;1683724;85;21128;-67
2022/12/24 13:17:18;;;;;;;169.37;80.85;;;;;;;9.56;100.00;99537.32;1684123;85;21088;-68
2022/12/24 13:20:06;;;;;;;142.10;67.47;;;;;;;9.50;100.00;99538.88;1683638;85;21076;-66
2022/12/24 13:22:33;;;;;;;188.75;84.40;;;;;;;9.76;100.00;99537.33;1683966;85;21553;-66
2022/12/24 13:24:59;;;;;;;147.62;66.95;;;;;;;9.81;100.00;99545.87;1683636;85;21093;-67
2022/12/24 13:27:30;;;;;;;110.28;54.55;;;;;;;9.85;100.00;99551.39;1697065;83;21590;-67
2022/12/24 13:30:00;;;;;;;121.25;59.98;;;;;;;10.02;100.00;99551.12;1713806;83;21045;-67
2022/12/24 13:32:48;;;;;;;83.00;42.60;;;;;;;9.98;100.00;99554.80;1714323;83;21100;-68
2022/12/24 13:35:24;;;;;;;92.25;47.20;;;;;;;9.94;100.00;99561.10;1714080;83;21123;-67
2022/12/24 13:37:50;;;;;;;119.37;59.48;;;;;;;9.85;100.00;99555.34;1713990;83;21546;-67
2022/12/24 13:40:25;;;;;;;82.27;40.92;;;;;;;9.93;100.00;99551.05;1707352;83;21112;-67
2022/12/24 13:43:04;;;;;;;234.35;103.53;;;;;;;9.64;100.00;99551.02;1714191;83;21544;-68
2022/12/24 13:45:42;;;;;;;177.70;78.25;;;;;;;9.29;100.00;99553.77;1714062;83;21087;-67
2022/12/24 13:48:27;;;;;;;146.65;68.28;;;;;;;9.58;100.00;99553.89;1714199;83;21074;-67
2022/12/24 13:50:55;;;;;;;150.18;69.27;;;;;;;9.48;100.00;99559.12;1713920;83;21163;-67
2022/12/24 13:53:39;;;;;;;163.37;75.87;;;;;;;9.53;100.00;99563.75;1713861;82;21084;-68
2022/12/24 13:56:17;;;;;;;154.75;68.75;;;;;;;9.70;100.00;99565.19;1714004;82;21084;-67
2022/12/24 13:58:54;;;;;;;139.35;67.70;;;;;;;9.01;100.00;99564.92;1714199;83;21060;-66
2022/12/24 14:01:24;;;;;;;121.47;59.85;;;;;;;9.41;100.00;99564.65;1714078;83;21319;-66
2022/12/24 14:03:54;;;;;;;117.55;59.50;;;;;;;9.30;100.00;99570.80;1726750;82;21064;-68
2022/12/24 14:06:31;;;;;;;123.18;60.58;;;;;;;9.19;100.00;99573.00;1735199;82;21623;-67
2022/12/24 14:09:14;;;;;;;116.57;57.98;;;;;;;9.19;100.00;99573.00;1733956;82;21082;-67
2022/12/24 14:12:04;;;;;;;117.22;58.55;;;;;;;8.86;100.00;99569.48;1735387;82;21063;-67
2022/12/24 14:14:39;;;;;;;137.68;63.23;;;;;;;8.92;100.00;99581.05;1735383;82;21134;-67
2022/12/24 14:17:26;;;;;;;136.52;64.45;;;;;;;8.58;100.00;99583.67;1735231;82;21059;-67
2022/12/24 14:19:58;;;;;;;154.50;69.95;;;;;;;8.54;100.00;99588.63;1735493;82;21119;-67
2022/12/24 14:22:35;;;;;;;144.25;68.95;;;;;;;8.54;100.00;99588.63;1734914;82;21040;-67
2022/12/24 14:25:18;;;;;;;138.15;66.82;;;;;;;8.56;100.00;99585.95;1735737;82;21090;-66
2022/12/24 14:27:52;;;;;;;112.20;54.03;;;;;;;8.54;100.00;99582.06;1718803;82;21216;-67
2022/12/24 14:30:24;;;;;;;143.93;66.92;;;;;;;8.61;100.00;99599.29;1703124;84;21029;-67
2022/12/24 14:32:51;;;;;;;129.40;61.63;;;;;;;8.30;100.00;99602.61;1705895;84;21075;-67
2022/12/24 14:35:36;;;;;;;124.27;60.45;;;;;;;8.91;100.00;99608.23;1706270;84;21056;-67
2022/12/24 14:38:12;;;;;;;114.55;56.13;;;;;;;8.37;100.00;99608.03;1705842;84;21051;-65
2022/12/24 14:41:07;;;;;;;105.58;52.67;;;;;;;8.52;100.00;99615.38;1706126;84;21076;-66
2022/12/24 14:44:11;;;;;;;91.82;46.70;;;;;;;8.16;100.00;99614.44;1705941;84;21064;-66
2022/12/24 14:46:50;;;;;;;120.95;59.65;;;;;;;8.18;100.00;99617.87;1705494;84;21021;-67
2022/12/24 14:49:42;;;;;;;120.80;59.50;;;;;;;8.10;100.00;99619.92;1705938;84;21032;-66
2022/12/24 14:52:39;;;;;;;103.78;53.13;;;;;;;8.14;100.00;99626.78;1704960;82;21596;-66
2022/12/24 14:55:42;;;;;;;115.60;56.80;;;;;;;8.09;100.00;99626.06;1704884;84;21120;-68
2022/12/24 14:58:29;;;;;;;159.32;76.87;;;;;;;8.08;100.00;99633.54;1706184;82;21074;-66
2022/12/24 15:01:00;;;;;;;116.67;56.83;;;;;;;8.27;100.00;99628.95;1705905;84;21059;-66
2022/12/24 15:03:31;;;;;;;126.02;60.30;;;;;;;8.40;100.00;99627.65;1698136;83;21618;-67
2022/12/24 15:06:05;;;;;;;120.47;60.12;;;;;;;8.27;100.00;99634.20;1685656;85;21057;-66
2022/12/24 15:08:39;;;;;;;103.62;52.10;;;;;;;8.35;100.00;99640.02;1685249;85;21601;-68
2022/12/24 15:11:07;;;;;;;87.60;43.50;;;;;;;8.35;100.00;99644.84;1685204;85;21069;-66
2022/12/24 15:13:38;;;;;;;109.90;55.25;;;;;;;8.31;100.00;99649.78;1685710;85;21060;-67
2022/12/24 15:16:10;;;;;;;;;;;;;;;8.49;100.00;99650.93;1688042;85;21084;-66
2022/12/24 15:18:44;;;;;;;110.22;53.28;;;;;;;8.26;100.00;99656.08;1685775;84;20182;-66
2022/12/24 15:21:21;;;;;;;110.78;54.48;;;;;;;8.28;100.00;99646.39;1680573;85;21203;-67
2022/12/24 15:23:50;;;;;;;100.05;50.33;;;;;;;8.10;100.00;99648.77;1685087;85;21065;-66